Time;durP1;ratioP1;P1;durP2;ratioP2;P2;SDS_P1;SDS_P2;PMS_P1;PMS_P2;Temp;Humidity;BMP_temperature;BMP_pressure;BME280_temperature;BME280_humidity;BME280_pressure;Samples;Min_cycle;Max_cycle;Signal;HPM_P1;HPM_P2
2024/03/18 00:02:23;;;;;;;53.65;35.83;;;;;;;10.21;100.00;122224.06;5069836;28;20083;-70
2024/03/18 00:04:49;;;;;;;48.60;34.25;;;;;;;9.59;100.00;122135.09;5069886;28;20392;-69
2024/03/18 00:07:14;;;;;;;47.85;34.58;;;;;;;10.28;100.00;122328.88;5069876;28;20034;-76
2024/03/18 00:09:40;;;;;;;48.97;34.75;;;;;;;10.32;100.00;122357.53;5069398;28;20024;-70
2024/03/18 00:12:07;;;;;;;49.03;34.63;;;;;;;10.06;100.00;122262.38;5068571;28;20021;-69
2024/03/18 00:14:32;;;;;;;50.65;35.15;;;;;;;9.06;100.00;121836.91;5069045;28;20487;-69
2024/03/18 00:16:58;;;;;;;47.75;34.25;;;;;;;9.51;100.00;122128.94;5069600;28;20051;-70
2024/03/18 00:19:24;;;;;;;50.28;35.20;;;;;;;9.32;100.00;122003.31;5069564;28;20027;-69
2024/03/18 00:21:50;;;;;;;54.10;35.95;;;;;;;10.13;100.00;122392.78;5086075;28;20473;-70
2024/03/18 00:24:15;;;;;;;46.58;33.30;;;;;;;9.84;100.00;122312.94;5069602;28;20036;-74
2024/03/18 00:26:41;;;;;;;50.20;34.10;;;;;;;9.80;100.00;122385.47;5070058;28;20419;-70
2024/03/18 00:29:06;;;;;;;50.22;35.22;;;;;;;9.58;100.00;122359.31;5067427;28;20032;-71
2024/03/18 00:31:32;;;;;;;49.85;34.08;;;;;;;9.58;100.00;122424.22;5068218;28;20487;-70
2024/03/18 00:33:57;;;;;;;49.70;34.55;;;;;;;9.21;100.00;122314.19;5067930;28;20343;-70
2024/03/18 00:36:23;;;;;;;46.67;33.45;;;;;;;9.49;100.00;122647.31;5069572;28;20024;-69
2024/03/18 00:38:49;;;;;;;46.88;33.38;;;;;;;9.37;100.00;122765.66;5069840;28;20036;-70
2024/03/18 00:44:04;;;;;;;47.42;34.60;;;;;;;9.00;100.00;123088.78;5068675;28;20039;-70
2024/03/18 00:46:30;;;;;;;50.40;34.77;;;;;;;9.31;100.00;123299.81;5068998;28;20024;-69
2024/03/18 00:48:57;;;;;;;49.58;34.33;;;;;;;9.24;100.00;123517.69;5068180;28;20287;-70
2024/03/18 00:51:22;;;;;;;49.17;35.35;;;;;;;8.88;100.00;123731.59;5068662;28;20029;-70
2024/03/18 00:53:48;;;;;;;51.00;34.92;;;;;;;9.40;100.00;123986.06;5067469;28;20085;-72
2024/03/18 00:56:13;;;;;;;46.05;33.33;;;;;;;9.41;100.00;124224.66;5069393;28;20057;-70
2024/03/18 00:58:39;;;;;;;47.55;34.35;;;;;;;9.04;100.00;124439.81;5069662;28;20403;-71
2024/03/18 01:01:06;;;;;;;48.55;34.38;;;;;;;9.45;100.00;124709.25;5069067;28;20025;-70
2024/03/18 01:03:35;;;;;;;48.60;33.35;;;;;;;9.27;100.00;124974.66;5068905;28;20085;-70
2024/03/18 01:06:00;;;;;;;47.65;32.97;;;;;;;8.91;100.00;125198.00;5068427;28;20487;-73
2024/03/18 01:08:26;;;;;;;44.90;33.75;;;;;;;8.71;100.00;125407.25;5066787;28;20071;-70
2024/03/18 01:10:52;;;;;;;50.75;34.15;;;;;;;8.77;100.00;125591.94;5068546;28;20036;-70
2024/03/18 01:13:17;;;;;;;46.80;33.20;;;;;;;9.00;100.00;125796.59;5067893;28;20032;-71
2024/03/18 01:15:43;;;;;;;45.10;33.45;;;;;;;9.38;100.00;125946.78;5068410;28;20469;-70
2024/03/18 01:18:09;;;;;;;51.88;32.88;;;;;;;9.11;100.00;125946.00;5068780;28;20119;-70
2024/03/18 01:20:35;;;;;;;45.53;32.92;;;;;;;8.63;100.00;125853.50;5067184;28;20032;-70
2024/03/18 01:23:01;;;;;;;49.83;33.58;;;;;;;9.19;100.00;126075.31;5069164;28;20036;-70
2024/03/18 01:25:29;;;;;;;47.03;33.40;;;;;;;9.21;100.00;126161.31;5068194;28;20119;-70
2024/03/18 01:27:54;;;;;;;44.13;30.92;;;;;;;9.53;100.00;126430.97;5069059;28;20532;-70
2024/03/18 01:30:20;;;;;;;44.63;33.25;;;;;;;9.49;100.00;126472.53;5066788;28;20081;-74
2024/03/18 01:32:47;;;;;;;47.92;32.72;;;;;;;9.50;100.00;126590.81;5067355;28;20032;-70
2024/03/18 01:35:12;;;;;;;44.50;32.65;;;;;;;9.17;100.00;126547.88;5068136;28;20115;-70
2024/03/18 01:37:38;;;;;;;45.67;33.15;;;;;;;8.49;100.00;126474.78;5067003;28;20472;-70
2024/03/18 01:40:07;;;;;;;49.38;34.95;;;;;;;8.55;100.00;126589.59;5067445;28;20097;-74
2024/03/18 01:42:34;;;;;;;46.97;33.83;;;;;;;9.18;100.00;126774.88;5065998;28;20041;-70
2024/03/18 01:45:00;;;;;;;47.03;33.78;;;;;;;8.90;100.00;126948.91;5066612;28;20036;-76
2024/03/18 01:47:25;;;;;;;47.03;34.25;;;;;;;9.10;100.00;127068.13;5068095;28;20446;-70
2024/03/18 01:49:52;;;;;;;50.92;35.30;;;;;;;9.42;100.00;127298.88;5068173;28;20040;-70
2024/03/18 01:52:19;;;;;;;51.22;37.97;;;;;;;9.21;100.00;127353.78;5068705;28;20041;-70
2024/03/18 01:54:45;;;;;;;47.22;34.92;;;;;;;8.83;100.00;127432.16;5066074;28;20083;-70
2024/03/18 01:57:11;;;;;;;54.40;35.85;;;;;;;8.80;100.00;127373.53;5067779;28;20036;-70
2024/03/18 01:59:36;;;;;;;46.40;33.78;;;;;;;9.28;100.00;127663.78;5068068;28;20040;-70
2024/03/18 02:02:02;;;;;;;49.30;34.45;;;;;;;9.26;100.00;127742.78;5065374;28;20036;-71
2024/03/18 02:04:28;;;;;;;46.40;33.63;;;;;;;8.39;100.00;127611.31;5082794;28;20028;-70
2024/03/18 02:07:00;;;;;;;50.90;35.20;;;;;;;8.48;100.00;127751.63;5067122;28;20040;-75
2024/03/18 02:09:27;;;;;;;49.35;34.20;;;;;;;9.10;100.00;128015.25;5067470;28;20101;-71
2024/03/18 02:11:54;;;;;;;49.03;34.67;;;;;;;8.37;100.00;127909.34;5067100;28;20032;-73
2024/03/18 02:14:20;;;;;;;47.67;34.45;;;;;;;8.25;100.00;127934.66;5066427;28;20028;-70
2024/03/18 02:16:45;;;;;;;50.17;35.55;;;;;;;8.75;100.00;128201.84;5084532;28;20127;-70
2024/03/18 02:19:11;;;;;;;47.10;34.15;;;;;;;8.58;100.00;128260.88;5067047;28;20062;-71
2024/03/18 02:21:37;;;;;;;52.65;34.42;;;;;;;9.34;100.00;128481.06;5067422;28;20521;-70
2024/03/18 02:24:06;;;;;;;50.55;34.95;;;;;;;8.63;100.00;128304.84;5067042;28;20415;-70
2024/03/18 02:26:35;;;;;;;45.72;34.15;;;;;;;9.00;100.00;128430.84;5067221;28;20032;-71
2024/03/18 02:29:01;;;;;;;47.83;34.58;;;;;;;9.32;100.00;128607.19;5067462;28;20071;-70
2024/03/18 02:31:27;;;;;;;47.88;34.88;;;;;;;9.51;100.00;128732.53;5066339;28;20483;-70
2024/03/18 02:33:52;;;;;;;51.00;34.55;;;;;;;9.08;100.00;128658.78;5067015;28;20480;-70
2024/03/18 02:36:20;;;;;;;48.97;34.03;;;;;;;9.44;100.00;128777.38;5066759;28;20522;-70
2024/03/18 02:38:46;;;;;;;50.50;35.65;;;;;;;8.52;100.00;128613.19;5065857;28;20048;-71
2024/03/18 02:41:11;;;;;;;53.15;35.85;;;;;;;8.97;100.00;128791.00;5065997;28;20036;-71
2024/03/18 02:43:38;;;;;;;50.08;35.35;;;;;;;9.48;100.00;128847.41;5067070;28;20048;-70
2024/03/18 02:46:07;;;;;;;51.65;34.60;;;;;;;9.36;100.00;128847.09;5064121;28;20040;-70
2024/03/18 02:48:32;;;;;;;47.53;35.30;;;;;;;9.40;100.00;128857.19;5066933;28;20036;-70
2024/03/18 02:50:58;;;;;;;57.08;36.83;;;;;;;9.25;100.00;128795.19;5066766;28;20063;-70
2024/03/18 02:53:23;;;;;;;53.15;35.95;;;;;;;8.63;100.00;128741.69;5066461;28;20027;-71
2024/03/18 02:55:49;;;;;;;54.70;38.17;;;;;;;9.24;100.00;128874.88;5065085;28;20088;-70
2024/03/18 02:58:16;;;;;;;48.53;35.13;;;;;;;9.74;100.00;129157.34;5065883;28;20039;-70
2024/03/18 03:00:42;;;;;;;53.53;35.97;;;;;;;8.71;100.00;128829.41;5081610;28;20047;-72
2024/03/18 03:03:07;;;;;;;52.58;36.60;;;;;;;8.90;100.00;128943.47;5066820;28;20044;-70
2024/03/18 03:05:33;;;;;;;49.53;34.80;;;;;;;8.39;100.00;128832.88;5066374;28;20036;-71
2024/03/18 03:07:58;;;;;;;49.95;36.75;;;;;;;8.97;100.00;128941.81;5082185;28;20028;-72
2024/03/18 03:10:24;;;;;;;53.03;36.03;;;;;;;9.21;100.00;129121.53;5067449;28;20039;-70
2024/03/18 03:12:49;;;;;;;50.80;36.22;;;;;;;9.25;100.00;129106.13;5068086;28;20093;-71
2024/03/18 03:15:15;;;;;;;52.08;36.03;;;;;;;9.13;100.00;129141.53;5070683;28;20108;-71
2024/03/18 03:17:40;;;;;;;50.75;34.88;;;;;;;9.19;100.00;129182.66;5085436;28;20035;-70
2024/03/18 03:20:08;;;;;;;48.72;34.28;;;;;;;9.43;100.00;129297.09;5069029;28;22096;-70
2024/03/18 03:22:35;;;;;;;45.60;32.42;;;;;;;8.33;100.00;129020.53;5069150;28;20483;-70
2024/03/18 03:25:01;;;;;;;48.70;33.40;;;;;;;9.29;100.00;129220.72;5069483;28;20040;-70
2024/03/18 03:27:27;;;;;;;52.85;35.35;;;;;;;8.60;100.00;129108.16;5070557;28;20032;-72
2024/03/18 03:29:53;;;;;;;62.15;37.45;;;;;;;9.00;100.00;129182.38;5069198;28;20119;-70
2024/03/18 03:32:18;;;;;;;65.85;40.05;;;;;;;9.08;100.00;129180.34;5070409;28;20028;-70
2024/03/18 03:34:44;;;;;;;58.10;37.50;;;;;;;8.89;100.00;129161.16;5070401;28;20032;-70
2024/03/18 03:37:10;;;;;;;53.63;37.67;;;;;;;8.69;100.00;129191.53;5070393;28;20036;-71
2024/03/18 03:39:38;;;;;;;57.83;38.67;;;;;;;9.04;100.00;129272.88;5071414;28;20545;-70
2024/03/18 03:42:04;;;;;;;52.83;36.28;;;;;;;9.20;100.00;129311.22;5070800;28;20039;-72
2024/03/18 03:44:30;;;;;;;55.03;38.90;;;;;;;8.96;100.00;129255.53;5069678;28;20028;-69
2024/03/18 03:46:56;;;;;;;51.63;36.75;;;;;;;8.91;100.00;129257.50;5070997;28;20024;-68
2024/03/18 03:49:21;;;;;;;50.65;36.95;;;;;;;8.47;100.00;129225.63;5070941;28;20036;-69
2024/03/18 03:51:47;;;;;;;58.03;37.67;;;;;;;9.07;100.00;129351.00;5085645;28;20415;-70
2024/03/18 03:54:14;;;;;;;54.28;37.33;;;;;;;9.11;100.00;129419.53;5070121;28;20101;-69
2024/03/18 03:56:39;;;;;;;48.75;35.13;;;;;;;9.06;100.00;129443.41;5069890;28;20515;-69
2024/03/18 03:59:04;;;;;;;53.92;37.03;;;;;;;8.99;100.00;129452.34;5070297;28;20032;-70
2024/03/18 04:01:30;;;;;;;58.35;37.60;;;;;;;8.78;100.00;129360.72;5070335;28;20028;-69
2024/03/18 04:03:56;;;;;;;58.88;37.75;;;;;;;8.86;100.00;129459.88;5068715;28;20033;-69
2024/03/18 04:06:22;;;;;;;54.22;37.13;;;;;;;8.17;100.00;129326.50;5069604;28;20490;-73
2024/03/18 04:08:47;;;;;;;54.28;37.45;;;;;;;8.20;100.00;129337.06;5070159;28;20435;-69
2024/03/18 04:11:13;;;;;;;57.90;37.60;;;;;;;8.07;100.00;129377.75;5085254;28;20143;-71
2024/03/18 04:13:38;;;;;;;57.42;38.10;;;;;;;8.20;100.00;129436.63;5069665;28;20506;-69
2024/03/18 04:16:04;;;;;;;60.53;38.20;;;;;;;8.60;100.00;129506.75;5084818;28;20051;-71
2024/03/18 04:18:29;;;;;;;55.75;38.22;;;;;;;7.63;100.00;129362.41;5084366;28;20029;-69
2024/03/18 04:20:55;;;;;;;58.50;37.00;;;;;;;8.70;100.00;129633.25;5068592;28;20036;-69
2024/03/18 04:23:21;;;;;;;57.28;37.78;;;;;;;8.67;100.00;129675.31;5067672;28;20507;-69
2024/03/18 04:25:47;;;;;;;60.42;38.40;;;;;;;8.64;100.00;129676.41;5068053;28;20040;-70
2024/03/18 04:28:13;;;;;;;54.42;37.63;;;;;;;7.86;100.00;129529.78;5069684;28;20024;-69
2024/03/18 04:30:38;;;;;;;62.13;41.83;;;;;;;7.77;100.00;129520.41;5069500;28;20115;-70
2024/03/18 04:33:07;;;;;;;57.72;41.55;;;;;;;8.63;100.00;129752.38;5067846;28;20105;-70
2024/03/18 04:35:32;;;;;;;62.15;40.97;;;;;;;8.40;100.00;129734.06;5067789;28;20107;-69
2024/03/18 04:37:58;;;;;;;58.90;42.70;;;;;;;8.00;100.00;129666.31;5069674;28;20491;-69
2024/03/18 04:40:25;;;;;;;71.50;52.70;;;;;;;8.38;100.00;129732.25;5068612;28;20071;-71
2024/03/18 04:42:51;;;;;;;55.63;39.88;;;;;;;8.81;100.00;129881.03;5069391;28;20119;-69
2024/03/18 04:45:18;;;;;;;55.88;39.22;;;;;;;8.01;100.00;129725.75;5069291;28;20109;-69
2024/03/18 04:47:52;;;;;;;56.20;38.80;;;;;;;8.67;100.00;129899.09;5065651;28;20037;-69
2024/03/18 04:50:20;;;;;;;51.92;37.75;;;;;;;8.66;100.00;129997.66;5066246;28;20483;-71
2024/03/18 04:52:46;;;;;;;51.58;38.42;;;;;;;8.93;100.00;130104.06;5069588;28;20075;-72
2024/03/18 04:55:12;;;;;;;50.03;37.67;;;;;;;9.14;100.00;130216.38;5068657;28;20047;-70
2024/03/18 04:57:39;;;;;;;54.60;37.97;;;;;;;9.06;100.00;130197.81;5067621;28;20032;-73
2024/03/18 05:00:09;;;;;;;53.55;38.35;;;;;;;8.75;100.00;130187.47;5066586;28;20039;-75
2024/03/18 05:02:36;;;;;;;59.35;41.33;;;;;;;8.21;100.00;130131.94;5083966;28;20068;-70
2024/03/18 05:05:02;;;;;;;54.08;39.45;;;;;;;9.31;100.00;130404.44;5069072;28;20047;-73
2024/03/18 05:07:28;;;;;;;53.22;38.92;;;;;;;9.32;100.00;130397.88;5067247;28;20021;-71
2024/03/18 05:09:55;;;;;;;49.72;36.20;;;;;;;9.35;100.00;130437.66;5068965;28;20024;-71
2024/03/18 05:12:20;;;;;;;63.42;45.05;;;;;;;9.52;100.00;130505.59;5064880;28;20028;-70
2024/03/18 05:14:46;;;;;;;49.55;35.30;;;;;;;9.32;100.00;130433.69;5066894;28;20036;-69
2024/03/18 05:17:12;;;;;;;54.42;37.15;;;;;;;9.38;100.00;130476.06;5067447;28;20036;-69
2024/03/18 05:19:37;;;;;;;76.07;51.17;;;;;;;9.45;100.00;130552.78;5066931;28;21154;-69
2024/03/18 05:22:03;;;;;;;90.10;54.28;;;;;;;8.94;100.00;130448.88;5067396;28;20505;-72
2024/03/18 05:24:28;;;;;;;77.80;55.70;;;;;;;9.50;100.00;130598.47;5064656;28;20093;-70
2024/03/18 05:26:54;;;;;;;55.13;39.75;;;;;;;10.04;100.00;130815.56;5066727;28;20115;-70
2024/03/18 05:29:20;;;;;;;48.30;35.67;;;;;;;9.74;100.00;130785.66;5067570;28;20041;-73
2024/03/18 05:31:46;;;;;;;50.75;35.33;;;;;;;10.27;100.00;130917.25;5067061;28;20449;-71
2024/03/18 05:34:11;;;;;;;53.92;36.38;;;;;;;10.02;100.00;130837.84;5066755;28;20103;-70
2024/03/18 05:36:37;;;;;;;49.65;36.22;;;;;;;10.48;100.00;130882.38;5065428;28;20384;-70
2024/03/18 05:39:03;;;;;;;54.55;39.58;;;;;;;10.96;100.00;130970.00;5066540;28;20455;-70
2024/03/18 05:41:29;;;;;;;78.38;45.75;;;;;;;11.26;100.00;131057.47;5066048;28;20101;-69
2024/03/18 05:43:54;;;;;;;50.15;38.20;;;;;;;10.85;100.00;130793.09;5066300;28;20025;-69
2024/03/18 05:46:21;;;;;;;51.88;34.95;;;;;;;11.37;100.00;130877.63;5066109;28;20032;-70
2024/03/18 05:48:47;;;;;;;74.03;41.92;;;;;;;10.77;100.00;130485.72;5065909;28;20039;-69
2024/03/18 05:51:13;;;;;;;51.22;33.13;;;;;;;11.09;100.00;130544.28;5068089;28;20032;-68
2024/03/18 05:53:41;;;;;;;43.78;32.55;;;;;;;10.48;100.00;130258.25;5067354;28;20043;-69
2024/03/18 05:56:07;;;;;;;51.63;35.85;;;;;;;10.94;100.00;130291.94;5065382;28;20059;-69
2024/03/18 05:58:39;;;;;;;41.13;30.67;;;;;;;11.73;100.00;130318.31;5066549;28;20025;-68
2024/03/18 06:01:10;;;;;;;43.30;32.65;;;;;;;11.98;100.00;130226.34;5065164;28;20047;-68
2024/03/18 06:03:36;;;;;;;43.85;32.67;;;;;;;12.26;100.00;130173.16;5065646;28;20044;-70
2024/03/18 06:06:02;;;;;;;45.83;33.22;;;;;;;12.98;100.00;129434.22;5080216;28;20110;-68
2024/03/18 06:08:27;;;;;;;47.53;31.00;;;;;;;12.55;100.00;128734.41;5064758;28;20450;-69
2024/03/18 06:10:59;;;;;;;36.58;29.35;;;;;;;13.28;100.00;128574.94;5066231;28;20046;-68
2024/03/18 06:13:25;;;;;;;36.70;28.27;;;;;;;12.61;100.00;127896.28;5081911;28;20032;-70
2024/03/18 06:15:53;;;;;;;39.42;28.95;;;;;;;12.91;100.00;127303.06;5068649;28;20020;-72
2024/03/18 06:18:19;;;;;;;34.90;28.02;;;;;;;13.43;100.00;126800.13;5064310;28;20028;-69
2024/03/18 06:20:48;;;;;;;36.95;28.23;;;;;;;13.11;100.00;126169.19;5066981;28;20103;-69
2024/03/18 06:23:16;;;;;;;35.85;28.23;;;;;;;13.85;100.00;125542.47;5065829;28;20173;-70
2024/03/18 06:26:03;;;;;;;34.67;26.95;;;;;;;13.99;100.00;124983.72;5065898;28;20036;-70
2024/03/18 06:28:32;;;;;;;34.63;27.58;;;;;;;14.12;100.00;124082.91;5067364;28;20093;-69
2024/03/18 06:30:58;;;;;;;34.00;26.63;;;;;;;13.62;100.00;123397.69;5080330;28;20086;-70
2024/03/18 06:33:24;;;;;;;32.80;25.92;;;;;;;13.27;100.00;122857.88;5063786;28;20130;-69
2024/03/18 06:35:54;;;;;;;36.80;27.35;;;;;;;13.92;100.00;122556.41;5064867;28;20032;-70
2024/03/18 06:38:20;;;;;;;36.05;28.52;;;;;;;14.19;100.00;122347.06;5080070;28;20094;-69
2024/03/18 06:40:46;;;;;;;39.45;30.35;;;;;;;13.63;100.00;122193.78;5065241;28;20104;-71
2024/03/18 06:43:11;;;;;;;43.92;32.97;;;;;;;14.76;100.00;122004.94;5065718;28;20183;-71
2024/03/18 06:45:37;;;;;;;39.53;28.52;;;;;;;14.52;100.00;121654.94;5066071;28;20044;-71
2024/03/18 06:48:04;;;;;;;35.80;27.30;;;;;;;13.45;100.00;122061.00;5065714;28;20037;-71
2024/03/18 06:50:30;;;;;;;36.38;29.40;;;;;;;14.21;100.00;122320.28;5066089;28;20032;-70
2024/03/18 06:52:59;;;;;;;34.33;28.23;;;;;;;13.05;100.00;121650.25;5064512;28;20479;-71
2024/03/18 06:55:25;;;;;;;35.33;28.25;;;;;;;13.20;100.00;121670.97;5066428;28;20056;-68
2024/03/18 06:57:52;;;;;;;34.50;27.90;;;;;;;13.92;100.00;121624.34;5044301;28;20499;-69
2024/03/18 07:00:23;;;;;;;35.15;28.00;;;;;;;14.33;100.00;121452.78;5047406;28;20036;-70
2024/03/18 07:02:52;;;;;;;36.90;29.90;;;;;;;13.52;100.00;119511.97;5046292;28;20400;-70
2024/03/18 07:05:18;;;;;;;34.90;28.45;;;;;;;13.79;100.00;119501.53;5053454;28;20037;-68
2024/03/18 07:07:43;;;;;;;38.20;28.73;;;;;;;13.47;100.00;119318.66;5049957;28;20061;-72
2024/03/18 07:10:11;;;;;;;35.03;28.77;;;;;;;13.78;100.00;119304.28;5046536;28;20061;-69
2024/03/18 07:12:37;;;;;;;34.78;27.63;;;;;;;15.09;100.00;119629.97;5045842;28;20078;-68
2024/03/18 07:15:04;;;;;;;37.75;28.17;;;;;;;15.29;100.00;119206.13;5045537;28;20470;-69
2024/03/18 07:17:29;;;;;;;37.50;31.33;;;;;;;15.25;100.00;118716.59;5062889;28;20033;-69
2024/03/18 07:19:55;;;;;;;37.33;32.00;;;;;;;14.86;100.00;117939.63;5046912;28;20021;-69
2024/03/18 07:22:20;;;;;;;35.30;29.98;;;;;;;15.61;100.00;117085.00;5046476;28;20446;-72
2024/03/18 07:24:45;;;;;;;35.45;29.00;;;;;;;14.89;100.00;116681.41;5045883;28;20036;-70
2024/03/18 07:27:11;;;;;;;33.08;26.75;;;;;;;16.57;100.00;116278.78;5047245;28;20044;-70
2024/03/18 07:29:38;;;;;;;29.40;23.95;;;;;;;15.37;100.00;115656.00;5045394;28;20056;-69
2024/03/18 07:32:03;;;;;;;26.85;22.58;;;;;;;15.45;100.00;115088.88;5048044;28;20441;-69
2024/03/18 07:34:31;;;;;;;23.38;20.35;;;;;;;16.19;100.00;116763.00;5046830;28;20025;-70
2024/03/18 07:36:56;;;;;;;25.05;20.40;;;;;;;16.34;100.00;114676.91;5046814;28;20037;-72
2024/03/18 07:39:25;;;;;;;24.33;19.50;;;;;;;15.24;100.00;112243.22;5046003;28;20051;-69
2024/03/18 07:41:50;;;;;;;27.13;22.30;;;;;;;14.94;100.00;112606.94;5045570;28;20029;-70
2024/03/18 07:44:15;;;;;;;23.00;19.83;;;;;;;15.05;100.00;112231.81;5045555;28;20041;-69
2024/03/18 07:46:41;;;;;;;23.88;20.20;;;;;;;16.23;100.00;113259.88;5045336;28;20458;-71
2024/03/18 07:49:06;;;;;;;22.75;19.42;;;;;;;16.44;100.00;112184.06;5046628;28;20116;-70
2024/03/18 07:51:32;;;;;;;21.75;17.90;;;;;;;15.97;100.00;110699.44;5044988;28;20025;-70
2024/03/18 07:53:58;;;;;;;27.77;20.92;;;;;;;16.04;100.00;110297.25;5044662;28;20136;-69
2024/03/18 07:56:24;;;;;;;20.92;16.02;;;;;;;17.20;100.00;109458.59;5046921;28;20428;-69
2024/03/18 07:58:49;;;;;;;18.83;16.48;;;;;;;17.76;100.00;108315.72;5046028;28;20043;-71
2024/03/18 08:01:14;;;;;;;19.15;14.77;;;;;;;16.48;100.00;107151.31;5046217;28;20037;-70
2024/03/18 08:03:40;;;;;;;23.15;16.70;;;;;;;16.73;100.00;106960.84;5047499;28;20079;-70
2024/03/18 08:06:10;;;;;;;15.23;13.57;;;;;;;17.97;100.00;106919.84;5045861;28;20083;-71
2024/03/18 08:08:35;;;;;;;12.75;10.88;;;;;;;17.41;100.00;106328.69;5048470;28;20120;-70
2024/03/18 08:11:01;;;;;;;24.70;19.35;;;;;;;17.71;100.00;105583.91;5046198;28;20112;-68
2024/03/18 08:13:26;;;;;;;13.90;12.07;;;;;;;17.45;100.00;104639.91;5049204;28;20040;-69
2024/03/18 08:15:52;;;;;;;9.50;6.75;;;;;;;18.15;100.00;104086.31;5048591;28;20049;-68
2024/03/18 08:18:17;;;;;;;11.00;7.18;;;;;;;17.32;100.00;103482.66;5045512;28;20045;-67
2024/03/18 08:20:42;;;;;;;9.95;8.95;;;;;;;18.30;100.00;103016.19;5047665;28;20407;-68
2024/03/18 08:23:08;;;;;;;6.95;6.25;;;;;;;17.93;100.00;102351.44;5046192;28;20040;-71
2024/03/18 08:25:34;;;;;;;5.82;5.15;;;;;;;16.90;100.00;101789.63;5047370;28;20033;-67
2024/03/18 08:28:00;;;;;;;9.18;5.18;;;;;;;18.75;100.00;101510.28;5047607;28;20522;-67
2024/03/18 08:30:25;;;;;;;3.67;3.30;;;;;;;17.15;100.00;101208.94;5046942;28;20075;-67
2024/03/18 08:32:51;;;;;;;4.53;2.75;;;;;;;16.58;100.00;100975.50;5049766;28;20035;-70
2024/03/18 08:35:16;;;;;;;4.82;2.97;;;;;;;18.10;100.00;100726.63;5049851;28;20419;-72
2024/03/18 08:37:42;;;;;;;5.50;3.13;;;;;;;17.81;100.00;100595.91;5049562;28;20044;-71
2024/03/18 08:40:09;;;;;;;4.28;2.83;;;;;;;17.94;100.00;100572.13;5047470;28;20494;-69
2024/03/18 08:42:35;;;;;;;4.38;2.70;;;;;;;16.94;100.00;100460.34;5045908;28;20069;-67
2024/03/18 08:45:01;;;;;;;4.70;2.80;;;;;;;17.83;100.00;100462.88;5061751;28;20056;-69
2024/03/18 08:47:26;;;;;;;5.28;3.00;;;;;;;17.82;100.00;100301.75;5046249;28;20273;-67
2024/03/18 08:49:51;;;;;;;4.30;2.78;;;;;;;18.31;100.00;100326.53;5040213;28;20036;-68
2024/03/18 08:52:17;;;;;;;4.75;2.90;;;;;;;16.46;100.00;100283.69;5047311;28;20025;-73
2024/03/18 08:54:42;;;;;;;7.22;5.57;;;;;;;18.26;100.00;100283.94;5045318;28;20055;-69
2024/03/18 08:57:08;;;;;;;4.03;2.92;;;;;;;17.55;100.00;100244.06;5048634;28;20570;-71
2024/03/18 08:59:37;;;;;;;4.00;2.67;;;;;;;17.78;100.00;100179.34;5063317;28;20037;-71
2024/03/18 09:02:02;;;;;;;8.50;3.78;;;;;;;17.63;100.00;99869.06;5046843;28;20039;-70
2024/03/18 09:04:28;;;;;;;3.83;2.97;;;;;;;18.24;100.00;99611.41;5047810;28;20032;-70
2024/03/18 09:06:53;;;;;;;4.40;2.67;;;;;;;17.79;100.00;99633.19;5047117;28;20095;-70
2024/03/18 09:09:19;;;;;;;2.95;2.35;;;;;;;18.52;100.00;99485.13;5047783;28;20033;-70
2024/03/18 09:11:45;;;;;;;3.97;2.50;;;;;;;18.54;100.00;99285.03;5048706;28;20032;-70
2024/03/18 09:14:11;;;;;;;4.22;2.38;;;;;;;18.72;100.00;99364.34;5047339;28;20037;-73
2024/03/18 09:16:36;;;;;;;3.17;2.30;;;;;;;17.82;100.00;99410.09;4697773;28;9999934;-69
2024/03/18 09:19:01;;;;;;;5.05;2.55;;;;;;;18.83;100.00;99227.91;5045358;28;20498;-70
2024/03/18 09:21:27;;;;;;;3.40;2.58;;;;;;;18.13;100.00;99411.41;5060906;28;20040;-70
2024/03/18 09:23:52;;;;;;;5.00;2.90;;;;;;;18.11;100.00;99413.25;5046389;28;20064;-70
2024/03/18 09:26:19;;;;;;;4.90;4.38;;;;;;;18.69;100.00;99385.19;5046144;28;20032;-71
2024/03/18 09:28:46;;;;;;;4.60;2.97;;;;;;;18.52;100.00;99685.97;5046661;28;20040;-70
2024/03/18 09:31:13;;;;;;;4.63;2.78;;;;;;;18.46;100.00;99671.72;5045918;28;20094;-68
2024/03/18 09:33:38;;;;;;;3.67;2.83;;;;;;;19.42;100.00;99752.03;5044238;28;20025;-70
2024/03/18 09:36:04;;;;;;;2.55;2.13;;;;;;;19.10;100.00;99730.13;5046136;28;20141;-70
2024/03/18 09:38:30;;;;;;;3.08;2.10;;;;;;;18.78;100.00;100064.56;5045808;28;20392;-70
2024/03/18 09:41:06;;;;;;;4.05;2.13;;;;;;;19.65;100.00;100032.47;5046373;28;20120;-70
2024/03/18 09:43:36;;;;;;;2.70;1.90;;;;;;;18.42;100.00;100190.31;5046540;28;20036;-68
2024/03/18 09:46:05;;;;;;;3.60;1.80;;;;;;;19.82;100.00;100098.47;5045420;28;20031;-71
2024/03/18 09:48:32;;;;;;;2.28;1.75;;;;;;;18.77;100.00;100129.91;5045271;28;20518;-70
2024/03/18 09:50:59;;;;;;;2.38;1.70;;;;;;;19.68;100.00;100085.63;5046552;28;20908;-73
2024/03/18 09:53:27;;;;;;;3.72;1.90;;;;;;;18.42;100.00;100311.31;5044281;28;20029;-71
2024/03/18 09:55:53;;;;;;;3.83;1.70;;;;;;;18.69;100.00;100172.50;5046358;28;20053;-70
2024/03/18 09:58:19;;;;;;;3.30;1.63;;;;;;;19.78;100.00;100229.47;5044632;28;20033;-69
2024/03/18 10:00:45;;;;;;;1.63;1.00;;;;;;;18.20;100.00;100352.84;5043553;28;20040;-71
2024/03/18 10:03:20;;;;;;;1.60;1.30;;;;;;;18.28;100.00;100270.09;5047298;28;20124;-69
2024/03/18 10:05:50;;;;;;;2.45;0.98;;;;;;;18.45;100.00;100473.44;5045757;28;20048;-70
2024/03/18 10:08:16;;;;;;;1.60;0.82;;;;;;;17.94;100.00;100342.28;5047869;28;20036;-71
2024/03/18 10:10:45;;;;;;;3.25;0.90;;;;;;;18.45;100.00;100462.28;5048685;28;20036;-70
2024/03/18 10:13:12;;;;;;;1.48;1.15;;;;;;;17.60;100.00;100445.22;5045919;28;20036;-71
2024/03/18 10:15:40;;;;;;;1.85;1.00;;;;;;;18.01;100.00;100479.97;5046095;28;20037;-71
2024/03/18 10:18:13;;;;;;;3.08;2.28;;;;;;;17.90;100.00;100436.81;5046802;28;20036;-71
2024/03/18 10:20:39;;;;;;;3.17;1.70;;;;;;;18.13;100.00;100363.56;5046267;28;20106;-70
2024/03/18 10:23:08;;;;;;;3.78;1.88;;;;;;;19.70;100.00;100310.81;5047665;28;20070;-70
2024/03/18 10:25:34;;;;;;;3.95;1.60;;;;;;;19.43;100.00;100356.31;5045404;28;20029;-70
2024/03/18 10:28:04;;;;;;;2.03;1.25;;;;;;;18.22;100.00;100352.78;5044633;28;20891;-71
2024/03/18 10:30:30;;;;;;;4.68;1.75;;;;;;;18.37;100.00;100318.47;5043733;28;20029;-69
2024/03/18 10:32:58;;;;;;;3.90;1.50;;;;;;;20.77;100.00;100246.38;5042360;28;20040;-70
2024/03/18 10:35:30;;;;;;;2.53;1.40;;;;;;;19.98;100.00;100341.81;5044222;28;20026;-71
2024/03/18 10:38:08;;;;;;;2.58;1.20;;;;;;;18.43;100.00;100488.13;5044329;28;20045;-70
2024/03/18 10:40:39;;;;;;;2.22;1.15;;;;;;;18.69;100.00;100342.50;5042730;28;20094;-70
2024/03/18 10:43:13;;;;;;;2.10;1.15;;;;;;;20.48;100.00;100274.94;5044397;28;20059;-70
2024/03/18 10:45:47;;;;;;;1.20;0.80;;;;;;;20.70;100.00;100306.22;5046192;28;20029;-78
2024/03/18 10:48:16;;;;;;;3.35;0.98;;;;;;;19.46;100.00;100277.00;5043907;28;20025;-70
2024/03/18 10:50:44;;;;;;;3.20;1.00;;;;;;;20.25;100.00;100195.50;5045010;28;20029;-71
2024/03/18 10:53:21;;;;;;;2.22;1.00;;;;;;;20.59;100.00;100285.41;5042253;28;20036;-70
2024/03/18 10:55:56;;;;;;;2.20;1.15;;;;;;;21.20;100.00;100271.06;5044273;28;20088;-71
2024/03/18 10:58:29;;;;;;;2.72;0.95;;;;;;;20.41;100.00;100360.66;5049504;28;20064;-76
2024/03/18 11:00:55;;;;;;;3.45;1.10;;;;;;;20.73;100.00;100318.13;5047298;28;20515;-72
2024/03/18 11:03:23;;;;;;;1.95;1.00;;;;;;;20.95;100.00;100302.06;5041974;28;20044;-72
2024/03/18 11:05:54;;;;;;;2.38;0.77;;;;;;;20.73;100.00;100241.44;5040804;28;20029;-70
2024/03/18 11:08:22;;;;;;;4.43;1.30;;;;;;;21.25;100.00;100269.03;5042040;28;20040;-70
2024/03/18 11:10:50;;;;;;;2.42;1.13;;;;;;;21.78;100.00;100223.94;5041313;28;20037;-70